createdAt,value
2018-12-22T00:00:42.638Z,39.20
2018-12-22T00:03:11.678Z,35.97
2018-12-22T00:05:41.550Z,34.13
2018-12-22T00:08:10.745Z,34.80
2018-12-22T00:10:39.800Z,33.20
2018-12-22T00:13:10.295Z,35.13
2018-12-22T00:15:39.465Z,31.83
2018-12-22T00:18:08.645Z,32.97
2018-12-22T00:20:39.582Z,30.17
2018-12-22T00:23:08.706Z,36.77
2018-12-22T00:25:38.620Z,33.23
2018-12-22T00:28:07.822Z,34.67
2018-12-22T00:30:36.949Z,33.77
2018-12-22T00:33:06.287Z,36.50
2018-12-22T00:35:36.144Z,30.40
2018-12-22T00:38:05.917Z,29.73
2018-12-22T00:40:35.555Z,33.53
2018-12-22T00:43:05.791Z,31.67
2018-12-22T00:45:35.012Z,29.70
2018-12-22T00:48:04.172Z,27.97
2018-12-22T00:50:33.224Z,31.50
2018-12-22T00:53:02.311Z,30.20
2018-12-22T00:55:32.068Z,30.13
2018-12-22T00:58:01.371Z,35.03
2018-12-22T01:00:30.658Z,29.90
2018-12-22T01:02:59.700Z,30.67
2018-12-22T01:05:28.915Z,32.07
2018-12-22T01:07:57.960Z,29.47
2018-12-22T01:10:27.170Z,31.60
2018-12-22T01:12:56.299Z,28.63
2018-12-22T01:15:26.289Z,27.57
2018-12-22T01:17:55.499Z,29.40
2018-12-22T01:20:24.870Z,27.80
2018-12-22T01:22:54.243Z,26.47
2018-12-22T01:25:23.430Z,25.13
2018-12-22T01:27:53.377Z,31.03
2018-12-22T01:30:22.552Z,28.53
2018-12-22T01:32:54.239Z,32.90
2018-12-22T01:35:23.374Z,24.50
2018-12-22T01:40:27.915Z,24.97
2018-12-22T01:42:58.222Z,29.83
2018-12-22T01:45:27.459Z,24.60
2018-12-22T01:47:56.583Z,22.33
2018-12-22T01:50:25.990Z,23.17
2018-12-22T01:52:55.739Z,23.20
2018-12-22T01:55:25.238Z,22.17
2018-12-22T01:57:54.310Z,21.83
2018-12-22T02:00:23.507Z,22.17
2018-12-22T02:02:52.570Z,29.23
2018-12-22T02:05:23.116Z,23.87
2018-12-22T02:07:52.830Z,21.70
2018-12-22T02:10:21.900Z,24.90
2018-12-22T02:12:51.080Z,22.07
2018-12-22T02:15:20.848Z,23.73
2018-12-22T02:17:49.975Z,17.97
2018-12-22T02:20:19.104Z,19.70
2018-12-22T02:22:49.683Z,18.40
2018-12-22T02:25:20.663Z,21.23
2018-12-22T02:27:49.757Z,19.90
2018-12-22T02:30:19.031Z,17.80
2018-12-22T02:32:49.600Z,17.03
2018-12-22T02:35:18.796Z,15.37
2018-12-22T02:37:47.842Z,16.93
2018-12-22T02:40:17.435Z,17.57
2018-12-22T02:42:46.763Z,19.17
2018-12-22T02:45:16.191Z,15.20
2018-12-22T02:47:47.182Z,12.90
2018-12-22T02:50:17.077Z,15.13
2018-12-22T02:52:46.120Z,16.20
2018-12-22T02:55:15.778Z,15.87
2018-12-22T02:57:46.048Z,16.03
2018-12-22T03:00:15.421Z,17.80
2018-12-22T03:02:44.558Z,17.27
2018-12-22T03:05:14.085Z,14.50
2018-12-22T03:07:43.160Z,19.40
2018-12-22T03:10:13.112Z,16.70
2018-12-22T03:12:46.480Z,14.50
2018-12-22T03:15:15.585Z,16.87
2018-12-22T03:17:45.346Z,18.87
2018-12-22T03:20:14.597Z,19.13
2018-12-22T03:22:43.699Z,15.83
2018-12-22T03:25:12.762Z,16.93
2018-12-22T03:27:41.975Z,15.20
2018-12-22T03:30:11.016Z,13.27
2018-12-22T03:32:40.242Z,18.73
2018-12-22T03:35:09.280Z,14.63
2018-12-22T03:37:40.246Z,13.47
2018-12-22T03:40:09.949Z,17.63
2018-12-22T03:42:39.110Z,17.63
2018-12-22T03:45:08.706Z,15.97
2018-12-22T03:47:38.590Z,16.30
2018-12-22T03:50:07.767Z,15.87
2018-12-22T03:52:37.403Z,18.80
2018-12-22T03:55:06.489Z,16.53
2018-12-22T03:57:37.128Z,14.07
2018-12-22T04:00:10.625Z,15.37
2018-12-22T04:02:39.821Z,12.50
2018-12-22T04:05:10.107Z,14.73
2018-12-22T04:07:39.827Z,15.40
2018-12-22T04:10:09.134Z,11.93
2018-12-22T04:12:38.158Z,14.73
2018-12-22T04:15:07.906Z,16.07
2018-12-22T04:17:37.010Z,14.13
2018-12-22T04:20:07.184Z,17.40
2018-12-22T04:22:36.277Z,17.40
2018-12-22T04:25:06.293Z,19.00
2018-12-22T04:27:35.697Z,15.93
2018-12-22T04:30:05.056Z,21.00
2018-12-22T04:32:34.378Z,18.30
2018-12-22T04:35:03.907Z,18.47
2018-12-22T04:37:34.396Z,15.63
2018-12-22T04:40:04.082Z,14.17
2018-12-22T04:42:33.798Z,13.40
2018-12-22T04:45:02.972Z,16.03
2018-12-22T04:47:33.198Z,15.43
2018-12-22T04:50:02.272Z,15.80
2018-12-22T04:52:31.734Z,16.90
2018-12-22T04:55:00.869Z,14.77
2018-12-22T04:57:29.963Z,14.73
2018-12-22T04:59:59.040Z,20.93
2018-12-22T05:02:28.237Z,19.10
2018-12-22T05:04:57.394Z,19.13
2018-12-22T05:07:26.440Z,16.10
2018-12-22T05:09:55.592Z,19.13
2018-12-22T05:12:24.851Z,16.30
2018-12-22T05:14:53.960Z,14.13
2018-12-22T05:17:23.635Z,15.50
2018-12-22T05:19:52.690Z,19.13
2018-12-22T05:22:21.819Z,15.73
2018-12-22T05:24:52.105Z,16.80
2018-12-22T05:27:21.206Z,18.53
2018-12-22T05:29:51.946Z,13.53
2018-12-22T05:32:21.946Z,19.97
2018-12-22T05:34:51.072Z,14.20
2018-12-22T05:37:20.373Z,22.87
2018-12-22T05:39:49.464Z,14.23
2018-12-22T05:42:18.533Z,16.40
2018-12-22T05:44:47.657Z,21.03
2018-12-22T05:47:18.321Z,18.00
2018-12-22T05:49:47.528Z,15.27
2018-12-22T05:52:16.763Z,16.60
2018-12-22T05:54:45.900Z,19.27
2018-12-22T05:57:15.254Z,36.33
2018-12-22T05:59:44.368Z,10.53
2018-12-22T06:02:13.517Z,11.73
2018-12-22T06:04:44.741Z,7.37
2018-12-22T06:07:14.006Z,5.27
2018-12-22T06:09:43.173Z,4.67
2018-12-22T06:12:12.294Z,10.40
2018-12-22T06:14:42.850Z,10.20
2018-12-22T06:17:11.895Z,11.30
2018-12-22T06:19:40.998Z,17.90
2018-12-22T06:22:10.618Z,13.60
2018-12-22T06:24:40.026Z,19.63
2018-12-22T06:27:09.625Z,14.70
2018-12-22T06:29:38.853Z,13.77
2018-12-22T06:32:08.014Z,11.97
2018-12-22T06:34:37.222Z,8.37
2018-12-22T06:37:06.399Z,16.83
2018-12-22T06:39:35.607Z,13.57
2018-12-22T06:42:04.819Z,13.67
2018-12-22T06:44:33.888Z,14.47
2018-12-22T06:47:03.085Z,15.10
2018-12-22T06:49:32.727Z,13.37
2018-12-22T06:52:01.847Z,16.50
2018-12-22T06:54:31.045Z,16.97
2018-12-22T06:57:00.194Z,16.83
2018-12-22T06:59:29.258Z,18.33
2018-12-22T07:02:02.584Z,12.63
2018-12-22T07:04:31.795Z,18.90
2018-12-22T07:07:01.060Z,18.80
2018-12-22T07:09:30.193Z,17.27
2018-12-22T07:12:00.450Z,20.87
2018-12-22T07:14:29.821Z,17.80
2018-12-22T07:16:58.960Z,15.07
2018-12-22T07:19:28.265Z,19.53
2018-12-22T07:21:57.506Z,16.47
2018-12-22T07:24:26.638Z,18.20
2018-12-22T07:26:56.560Z,16.70
2018-12-22T07:29:25.935Z,14.47
2018-12-22T07:31:55.406Z,20.37
2018-12-22T07:34:24.517Z,19.07
2018-12-22T07:36:53.854Z,14.73
2018-12-22T07:39:23.376Z,16.97
2018-12-22T07:41:52.940Z,15.50
2018-12-22T07:44:22.068Z,10.93
2018-12-22T07:46:51.223Z,20.70
2018-12-22T07:49:20.268Z,18.07
2018-12-22T07:51:49.479Z,17.83
2018-12-22T07:54:19.758Z,18.87
2018-12-22T07:56:52.868Z,18.90
2018-12-22T07:59:21.931Z,13.57
2018-12-22T08:01:50.956Z,17.77
2018-12-22T08:04:20.330Z,16.37
2018-12-22T08:06:52.138Z,15.37
2018-12-22T08:09:21.326Z,22.70
2018-12-22T08:11:50.433Z,18.57
2018-12-22T08:14:19.698Z,16.37
2018-12-22T08:16:48.799Z,16.30
2018-12-22T08:19:18.054Z,17.43
2018-12-22T08:21:47.080Z,15.50
2018-12-22T08:24:16.281Z,20.47
2018-12-22T08:26:45.366Z,16.13
2018-12-22T08:29:14.649Z,20.03
2018-12-22T08:31:45.325Z,17.27
2018-12-22T08:34:14.453Z,14.93
2018-12-22T08:36:43.671Z,15.77
2018-12-22T08:39:13.984Z,14.90
2018-12-22T08:41:43.081Z,15.07
2018-12-22T08:44:12.168Z,11.77
2018-12-22T08:46:44.458Z,14.67
2018-12-22T08:49:13.626Z,13.70
2018-12-22T08:51:44.034Z,13.93
2018-12-22T08:54:13.180Z,16.57
2018-12-22T08:56:42.618Z,14.13
2018-12-22T08:59:17.536Z,19.23
2018-12-22T09:01:46.635Z,14.40
2018-12-22T09:04:16.352Z,17.30
2018-12-22T09:06:45.404Z,12.20
2018-12-22T09:09:14.460Z,14.97
2018-12-22T09:11:43.577Z,12.10
2018-12-22T09:14:14.406Z,16.97
2018-12-22T09:16:43.609Z,18.50
2018-12-22T09:19:14.333Z,16.03
2018-12-22T09:21:43.633Z,13.47
2018-12-22T09:24:12.712Z,14.10
2018-12-22T09:26:41.786Z,15.30
2018-12-22T09:29:10.846Z,17.37
2018-12-22T09:31:42.784Z,14.83
2018-12-22T09:34:13.421Z,15.23
2018-12-22T09:36:43.047Z,16.77
2018-12-22T09:39:12.173Z,16.43
2018-12-22T09:41:41.261Z,16.13
2018-12-22T09:44:10.448Z,17.20
2018-12-22T09:46:39.601Z,18.97
2018-12-22T09:49:08.778Z,16.77
2018-12-22T09:51:37.963Z,16.47
2018-12-22T09:54:07.111Z,22.80
2018-12-22T09:56:36.232Z,19.97
2018-12-22T09:59:06.497Z,16.40
2018-12-22T10:01:35.744Z,18.50
2018-12-22T10:04:04.877Z,22.70
2018-12-22T10:06:34.261Z,17.30
2018-12-22T10:09:03.646Z,19.67
2018-12-22T10:11:32.826Z,16.10
2018-12-22T10:14:01.907Z,20.47
2018-12-22T10:16:31.096Z,17.03
2018-12-22T10:19:00.383Z,18.30
2018-12-22T10:21:29.698Z,18.33
2018-12-22T10:23:58.758Z,21.53
2018-12-22T10:26:27.933Z,15.90
2018-12-22T10:28:57.168Z,17.57
2018-12-22T10:31:26.256Z,17.77
2018-12-22T10:33:55.371Z,18.07
2018-12-22T10:36:25.253Z,17.70
2018-12-22T10:38:54.399Z,14.57
2018-12-22T10:41:23.591Z,15.50
2018-12-22T10:43:52.846Z,14.63
2018-12-22T10:46:22.914Z,18.23
2018-12-22T10:48:52.154Z,17.23
2018-12-22T10:51:24.419Z,16.13
2018-12-22T10:53:52.406Z,18.63
2018-12-22T10:56:21.498Z,15.73
2018-12-22T10:58:50.966Z,16.33
2018-12-22T11:01:26.463Z,14.40
2018-12-22T11:03:51.214Z,15.47
2018-12-22T11:06:20.262Z,16.90
2018-12-22T11:08:49.343Z,15.47
2018-12-22T11:11:18.486Z,17.50
2018-12-22T11:13:48.415Z,14.43
2018-12-22T11:16:17.641Z,17.87
2018-12-22T11:18:47.945Z,19.67
2018-12-22T11:21:17.018Z,15.57
2018-12-22T11:23:46.326Z,17.60
2018-12-22T11:26:17.200Z,16.07
2018-12-22T11:28:46.283Z,18.27
2018-12-22T11:31:15.405Z,18.20
2018-12-22T11:33:44.609Z,15.50
2018-12-22T11:36:21.276Z,19.67
2018-12-22T11:38:51.338Z,18.73
2018-12-22T11:41:21.147Z,18.33
2018-12-22T11:43:50.954Z,15.70
2018-12-22T11:46:20.436Z,18.37
2018-12-22T11:49:58.441Z,16.07
2018-12-22T11:52:27.920Z,18.27
2018-12-22T11:54:56.967Z,17.93
2018-12-22T11:57:27.358Z,13.90
2018-12-22T11:59:56.409Z,13.97
2018-12-22T12:02:25.503Z,14.63
2018-12-22T12:04:54.783Z,14.97
2018-12-22T12:07:24.771Z,18.03
2018-12-22T12:09:54.195Z,15.90
2018-12-22T12:12:23.524Z,15.87
2018-12-22T12:14:52.657Z,16.60
2018-12-22T12:18:38.886Z,13.70
2018-12-22T12:21:08.899Z,17.47
2018-12-22T12:23:39.102Z,21.17
2018-12-22T12:26:08.438Z,16.40
2018-12-22T12:28:37.557Z,14.90
2018-12-22T12:31:06.624Z,12.00
2018-12-22T12:33:35.783Z,20.67
2018-12-22T12:36:04.899Z,15.13
2018-12-22T12:38:34.051Z,16.83
2018-12-22T12:41:03.195Z,13.80
2018-12-22T12:43:33.089Z,16.97
2018-12-22T12:46:02.209Z,14.77
2018-12-22T12:48:31.346Z,16.70
2018-12-22T12:51:00.541Z,18.57
2018-12-22T12:53:30.560Z,16.33
2018-12-22T12:56:00.594Z,16.33
2018-12-22T12:58:29.666Z,14.20
2018-12-22T13:00:59.073Z,16.27
2018-12-22T13:03:28.109Z,16.90
2018-12-22T13:05:57.181Z,15.70
2018-12-22T13:08:26.727Z,17.13
2018-12-22T13:10:55.993Z,16.93
2018-12-22T13:13:34.823Z,13.93
2018-12-22T13:16:04.053Z,15.33
2018-12-22T13:18:33.682Z,15.10
2018-12-22T13:21:04.275Z,15.23
2018-12-22T13:23:33.705Z,15.47
2018-12-22T13:26:02.876Z,16.27
2018-12-22T13:28:33.493Z,16.87
2018-12-22T13:31:02.675Z,11.00
2018-12-22T13:33:33.262Z,16.73
2018-12-22T13:36:02.601Z,14.47
2018-12-22T13:38:37.314Z,14.80
2018-12-22T13:41:06.415Z,14.23
2018-12-22T13:43:37.096Z,20.60
2018-12-22T13:46:06.510Z,12.13
2018-12-22T13:48:36.499Z,15.23
2018-12-22T13:51:05.798Z,13.00
2018-12-22T13:53:35.135Z,19.30
2018-12-22T13:56:04.319Z,14.67
2018-12-22T13:58:33.412Z,13.67
2018-12-22T14:01:04.784Z,14.93
2018-12-22T14:03:37.309Z,12.57
2018-12-22T14:06:09.892Z,15.23
2018-12-22T14:08:39.263Z,10.33
2018-12-22T14:11:08.914Z,13.20
2018-12-22T14:13:38.015Z,12.23
2018-12-22T14:16:15.753Z,16.40
2018-12-22T14:18:51.119Z,13.20
2018-12-22T14:21:20.286Z,13.73
2018-12-22T14:24:03.281Z,15.13
2018-12-22T14:26:32.695Z,16.60
2018-12-22T14:29:01.929Z,15.90
2018-12-22T14:31:30.968Z,13.47
2018-12-22T14:34:04.215Z,14.03
2018-12-22T14:36:33.570Z,13.33
2018-12-22T14:39:02.723Z,14.40
2018-12-22T14:41:31.849Z,14.67
2018-12-22T14:44:01.603Z,13.97
2018-12-22T14:46:30.756Z,14.40
2018-12-22T14:48:59.844Z,18.87
2018-12-22T14:51:28.967Z,17.40
2018-12-22T14:53:58.023Z,14.90
2018-12-22T14:56:35.836Z,18.90
2018-12-22T14:59:05.735Z,15.17
2018-12-22T15:01:34.831Z,17.83
2018-12-22T15:04:03.930Z,17.60
2018-12-22T15:06:33.013Z,20.87
2018-12-22T15:09:02.036Z,14.40
2018-12-22T15:11:32.588Z,17.07
2018-12-22T15:14:01.726Z,18.57
2018-12-22T15:16:32.634Z,16.30
2018-12-22T15:19:01.761Z,22.20
2018-12-22T15:21:30.921Z,18.17
2018-12-22T15:24:00.171Z,18.70
2018-12-22T15:26:29.466Z,17.20
2018-12-22T15:28:58.633Z,16.63
2018-12-22T15:31:29.436Z,19.17
2018-12-22T15:33:58.477Z,20.17
2018-12-22T15:36:27.928Z,18.33
2018-12-22T15:38:57.045Z,18.63
2018-12-22T15:41:26.068Z,16.13
2018-12-22T15:43:55.199Z,13.73
2018-12-22T15:46:24.238Z,15.97
2018-12-22T15:48:53.440Z,16.97
2018-12-22T15:51:22.489Z,15.83
2018-12-22T15:53:51.703Z,15.60
2018-12-22T15:56:20.847Z,13.43
2018-12-22T15:58:49.906Z,16.37
2018-12-22T16:01:19.235Z,15.20
2018-12-22T16:03:48.511Z,19.43
2018-12-22T16:06:24.368Z,19.27
2018-12-22T16:08:53.641Z,18.03
2018-12-22T16:11:22.690Z,16.13
2018-12-22T16:13:52.138Z,16.47
2018-12-22T16:16:21.178Z,20.23
2018-12-22T16:18:50.207Z,15.57
2018-12-22T16:21:20.582Z,16.77
2018-12-22T16:23:49.766Z,16.30
2018-12-22T16:26:18.894Z,18.83
2018-12-22T16:28:53.231Z,22.23
2018-12-22T16:31:23.084Z,16.93
2018-12-22T16:33:52.305Z,16.37
2018-12-22T16:36:21.625Z,21.07
2018-12-22T16:38:50.768Z,21.80
2018-12-22T16:41:19.832Z,19.27
2018-12-22T16:43:49.930Z,18.80
2018-12-22T16:46:19.123Z,21.23
2018-12-22T16:48:48.389Z,19.30
2018-12-22T16:51:17.482Z,24.63
2018-12-22T16:53:46.755Z,21.40
2018-12-22T16:56:17.194Z,21.17
2018-12-22T16:58:47.877Z,18.30
2018-12-22T17:01:46.724Z,18.53
2018-12-22T17:04:16.183Z,18.00
2018-12-22T17:06:45.227Z,20.43
2018-12-22T17:09:14.263Z,22.13
2018-12-22T17:11:46.240Z,19.40
2018-12-22T17:14:15.362Z,17.80
2018-12-22T17:16:45.253Z,18.67
2018-12-22T17:19:14.719Z,13.30
2018-12-22T17:21:53.553Z,16.20
2018-12-22T17:24:48.235Z,20.63
2018-12-22T17:27:17.686Z,21.97
2018-12-22T17:29:46.762Z,19.30
2018-12-22T17:32:16.347Z,17.70
2018-12-22T17:34:46.885Z,19.10
2018-12-22T17:37:18.523Z,17.27
2018-12-22T17:39:53.365Z,17.30
2018-12-22T17:42:20.922Z,16.50
2018-12-22T17:44:50.361Z,18.53
2018-12-22T17:47:19.707Z,16.03
2018-12-22T17:49:49.924Z,15.10
2018-12-22T17:52:18.968Z,22.83
2018-12-22T17:54:48.103Z,15.40
2018-12-22T17:57:17.139Z,18.27
2018-12-22T17:59:46.186Z,14.93
2018-12-22T18:02:15.477Z,18.20
2018-12-22T18:04:44.670Z,18.33
2018-12-22T18:07:17.360Z,14.33
2018-12-22T18:09:47.585Z,18.60
2018-12-22T18:12:16.701Z,22.40
2018-12-22T18:14:52.329Z,16.47
2018-12-22T18:17:21.640Z,18.90
2018-12-22T18:19:51.231Z,22.40
2018-12-22T18:22:20.435Z,14.03
2018-12-22T18:24:49.553Z,19.70
2018-12-22T18:27:18.596Z,15.97
2018-12-22T18:29:47.922Z,14.90
2018-12-22T18:32:17.001Z,21.53
2018-12-22T18:34:46.772Z,25.37
2018-12-22T18:37:16.691Z,22.10
2018-12-22T18:39:45.826Z,21.17
2018-12-22T18:42:17.048Z,21.87
2018-12-22T18:44:47.937Z,22.23
2018-12-22T18:47:18.560Z,17.70
2018-12-22T18:49:47.754Z,21.23
2018-12-22T18:52:18.869Z,24.77
2018-12-22T18:54:48.229Z,21.07
2018-12-22T18:57:18.294Z,23.60
2018-12-22T18:59:47.599Z,18.57
2018-12-22T19:02:17.158Z,20.47
2018-12-22T19:04:46.266Z,21.43
2018-12-22T19:07:15.474Z,23.53
2018-12-22T19:09:47.103Z,20.03
2018-12-22T19:12:17.849Z,23.67
2018-12-22T19:14:51.997Z,23.33
2018-12-22T19:17:21.533Z,22.77
2018-12-22T19:19:51.998Z,20.77
2018-12-22T19:22:21.387Z,20.07
2018-12-22T19:24:50.501Z,21.93
2018-12-22T19:27:19.613Z,21.10
2018-12-22T19:29:48.649Z,23.63
2018-12-22T19:32:19.208Z,17.80
2018-12-22T19:34:48.793Z,20.20
2018-12-22T19:37:17.854Z,22.33
2018-12-22T19:39:47.757Z,21.40
2018-12-22T19:42:17.035Z,19.70
2018-12-22T19:44:50.654Z,26.07
2018-12-22T19:47:19.706Z,24.13
2018-12-22T19:49:48.829Z,25.67
2018-12-22T19:52:21.119Z,23.23
2018-12-22T19:54:50.867Z,21.60
2018-12-22T19:57:21.340Z,29.70
2018-12-22T19:59:51.020Z,20.70
2018-12-22T20:02:20.896Z,21.60
2018-12-22T20:04:50.019Z,25.30
2018-12-22T20:07:19.158Z,17.33
2018-12-22T20:09:49.064Z,21.07
2018-12-22T20:12:18.348Z,22.20
2018-12-22T20:14:48.023Z,26.43
2018-12-22T20:17:17.144Z,17.90
2018-12-22T20:19:46.458Z,20.27
2018-12-22T20:22:16.530Z,28.07
2018-12-22T20:24:45.665Z,25.07
2018-12-22T20:27:14.741Z,29.07
2018-12-22T20:29:45.909Z,24.40
2018-12-22T20:32:15.048Z,20.10
2018-12-22T20:34:44.480Z,23.60
2018-12-22T20:37:13.514Z,26.90
2018-12-22T20:39:42.792Z,23.73
2018-12-22T20:42:13.346Z,29.67
2018-12-22T20:44:42.617Z,27.97
2018-12-22T20:47:11.731Z,27.40
2018-12-22T20:49:40.755Z,25.63
2018-12-22T20:52:09.862Z,19.27
2018-12-22T20:54:39.316Z,27.37
2018-12-22T20:57:08.395Z,26.80
2018-12-22T20:59:37.514Z,26.70
2018-12-22T21:02:07.853Z,31.90
2018-12-22T21:04:37.046Z,30.93
2018-12-22T21:07:06.445Z,29.37
2018-12-22T21:09:35.619Z,26.90
2018-12-22T21:12:04.843Z,30.07
2018-12-22T21:14:33.882Z,26.63
2018-12-22T21:17:03.654Z,30.60
2018-12-22T21:19:33.402Z,34.03
2018-12-22T21:22:04.904Z,26.00
2018-12-22T21:24:34.088Z,26.47
2018-12-22T21:27:03.199Z,25.93
2018-12-22T21:29:32.843Z,26.27
2018-12-22T21:32:01.877Z,25.43
2018-12-22T21:34:32.666Z,25.37
2018-12-22T21:37:01.842Z,29.93
2018-12-22T21:39:31.417Z,24.93
2018-12-22T21:42:00.564Z,23.33
2018-12-22T21:44:31.061Z,20.33
2018-12-22T21:47:01.952Z,26.43
2018-12-22T21:49:33.812Z,30.77
2018-12-22T21:52:04.282Z,22.13
2018-12-22T21:54:34.452Z,21.27
2018-12-22T21:57:04.305Z,26.17
2018-12-22T21:59:33.357Z,26.47
2018-12-22T22:02:02.462Z,27.17
2018-12-22T22:04:36.986Z,23.63
2018-12-22T22:07:03.949Z,21.97
2018-12-22T22:09:33.365Z,25.53
2018-12-22T22:12:02.563Z,27.53
2018-12-22T22:14:33.435Z,30.77
2018-12-22T22:17:02.460Z,33.27
2018-12-22T22:19:31.790Z,26.23
2018-12-22T22:22:00.846Z,32.07
2018-12-22T22:24:30.276Z,26.17
2018-12-22T22:27:00.393Z,31.27
2018-12-22T22:29:30.922Z,31.07
2018-12-22T22:31:59.995Z,28.70
2018-12-22T22:34:31.433Z,24.40
2018-12-22T22:37:00.491Z,33.60
2018-12-22T22:39:29.534Z,36.57
2018-12-22T22:41:58.780Z,32.13
2018-12-22T22:44:27.927Z,29.90
2018-12-22T22:46:58.227Z,26.73
2018-12-22T22:49:27.997Z,34.23
2018-12-22T22:51:57.274Z,30.50
2018-12-22T22:54:26.333Z,29.53
2018-12-22T22:56:55.437Z,30.07
2018-12-22T22:59:24.694Z,28.27
2018-12-22T23:01:54.948Z,32.67
2018-12-22T23:04:24.106Z,33.77
2018-12-22T23:06:53.252Z,30.70
2018-12-22T23:09:22.528Z,34.37
2018-12-22T23:11:51.599Z,24.00
2018-12-22T23:14:21.274Z,32.03
2018-12-22T23:16:50.343Z,33.53
2018-12-22T23:19:19.373Z,38.10
2018-12-22T23:21:51.230Z,33.27
2018-12-22T23:24:20.465Z,32.13
2018-12-22T23:26:49.652Z,34.07
2018-12-22T23:29:18.982Z,36.37
2018-12-22T23:31:48.155Z,33.80
2018-12-22T23:34:17.642Z,40.43
2018-12-22T23:36:47.113Z,35.70
2018-12-22T23:39:16.426Z,30.70
2018-12-22T23:41:45.535Z,31.33
2018-12-22T23:44:14.819Z,40.67
2018-12-22T23:46:43.867Z,34.00
2018-12-22T23:49:15.095Z,30.10
2018-12-22T23:51:44.448Z,34.60
2018-12-22T23:54:14.331Z,34.37
2018-12-22T23:56:43.763Z,38.67
2018-12-22T23:59:14.545Z,40.57
